Time;durP1;ratioP1;P1;durP2;ratioP2;P2;SDS_P1;SDS_P2;PMS_P1;PMS_P2;Temp;Humidity;BMP_temperature;BMP_pressure;BME280_temperature;BME280_humidity;BME280_pressure;Samples;Min_cycle;Max_cycle;Signal;HPM_P1;HPM_P2
2022/11/20 00:01:13;;;;;;;0.80;0.80;;;5.50;99.90;;;;;;5085296;28;20024;-77
2022/11/20 00:03:39;;;;;;;0.73;0.73;;;;;;;;;;5085216;28;20040;-77
2022/11/20 00:06:08;;;;;;;4.50;0.73;;;5.40;99.90;;;;;;5086638;28;20052;-76
2022/11/20 00:08:34;;;;;;;1.08;0.57;;;5.30;99.90;;;;;;5085626;28;20112;-76
2022/11/20 00:11:07;;;;;;;1.45;0.80;;;5.40;99.90;;;;;;5085979;28;20123;-77
2022/11/20 00:13:33;;;;;;;0.40;0.40;;;5.30;99.90;;;;;;5102966;28;20124;-75
2022/11/20 00:16:01;;;;;;;1.85;0.75;;;5.20;99.90;;;;;;5085569;28;20102;-77
2022/11/20 00:18:27;;;;;;;1.55;0.80;;;5.10;99.90;;;;;;5086463;28;20043;-76
2022/11/20 00:20:54;;;;;;;1.48;1.38;;;;;;;;;;5087137;28;20121;-76
2022/11/20 00:23:19;;;;;;;2.03;1.25;;;5.10;99.90;;;;;;5085098;28;20680;-76
2022/11/20 00:25:45;;;;;;;1.05;1.05;;;5.10;99.90;;;;;;5101968;28;20320;-76
2022/11/20 00:28:11;;;;;;;6.18;1.70;;;5.10;99.90;;;;;;5087149;28;20431;-76
2022/11/20 00:30:37;;;;;;;1.23;0.80;;;5.00;99.90;;;;;;5087089;28;20028;-76
2022/11/20 00:33:03;;;;;;;0.93;0.93;;;5.10;99.90;;;;;;5086769;28;20198;-75
2022/11/20 00:35:28;;;;;;;0.75;0.75;;;5.10;99.90;;;;;;5086366;28;20101;-77
2022/11/20 00:37:54;;;;;;;2.88;1.02;;;5.10;99.90;;;;;;5086647;28;20039;-77
2022/11/20 00:40:20;;;;;;;2.13;0.80;;;5.20;99.90;;;;;;5086258;28;20477;-76
2022/11/20 00:42:45;;;;;;;0.75;0.75;;;5.20;99.90;;;;;;5086412;28;20039;-76
2022/11/20 00:45:11;;;;;;;0.50;0.50;;;5.20;99.90;;;;;;5086606;28;20028;-76
2022/11/20 00:47:36;;;;;;;0.70;0.70;;;5.20;99.90;;;;;;5101620;28;20016;-75
2022/11/20 00:50:02;;;;;;;1.05;0.80;;;5.20;99.90;;;;;;5084599;28;20031;-76
2022/11/20 00:52:28;;;;;;;1.63;1.52;;;5.10;99.90;;;;;;5085111;28;20028;-76
2022/11/20 00:54:54;;;;;;;1.15;0.70;;;5.10;99.90;;;;;;5086735;28;20024;-73
2022/11/20 00:57:19;;;;;;;2.80;0.93;;;5.20;99.90;;;;;;5086599;28;20540;-75
2022/11/20 00:59:45;;;;;;;0.93;0.70;;;5.10;99.90;;;;;;5085766;28;20028;-77
2022/11/20 01:02:10;;;;;;;0.68;0.68;;;5.10;99.90;;;;;;5100541;28;20032;-75
2022/11/20 01:04:36;;;;;;;5.40;2.03;;;5.10;99.90;;;;;;5084977;28;20028;-76
2022/11/20 01:07:02;;;;;;;0.85;0.70;;;5.10;99.90;;;;;;5085856;28;20027;-76
2022/11/20 01:09:27;;;;;;;1.52;0.85;;;5.20;99.90;;;;;;5087670;28;20426;-76
2022/11/20 01:11:53;;;;;;;0.98;0.90;;;5.20;99.90;;;;;;5088198;28;20024;-76
2022/11/20 01:14:20;;;;;;;0.95;0.95;;;5.30;99.90;;;;;;5088344;28;20024;-75
2022/11/20 01:16:50;;;;;;;1.15;0.75;;;5.30;99.90;;;;;;5086882;28;20488;-75
2022/11/20 01:19:21;;;;;;;1.23;1.17;;;5.30;99.90;;;;;;5088272;28;20098;-75
2022/11/20 01:21:52;;;;;;;1.38;1.17;;;5.30;99.90;;;;;;5087859;28;20047;-75
2022/11/20 01:24:20;;;;;;;1.38;0.85;;;5.30;99.90;;;;;;5088344;28;20066;-76
2022/11/20 01:26:49;;;;;;;0.90;0.90;;;5.20;99.90;;;;;;5088186;28;20028;-76
2022/11/20 01:29:17;;;;;;;0.52;0.50;;;5.10;99.90;;;;;;5088129;28;20020;-76
2022/11/20 01:31:43;;;;;;;0.50;0.40;;;5.00;99.90;;;;;;5089050;28;20032;-75
2022/11/20 01:34:11;;;;;;;3.33;1.42;;;6.00;99.90;;;;;;5087662;28;20024;-75
2022/11/20 01:36:38;;;;;;;2.40;0.60;;;4.90;99.90;;;;;;5091084;28;20040;-77
2022/11/20 01:39:17;;;;;;;0.70;0.70;;;4.80;99.90;;;;;;5088117;28;20031;-76
2022/11/20 01:44:47;;;;;;;0.80;0.80;;;4.70;99.90;;;;;;5089408;28;20047;-76
2022/11/20 01:47:16;;;;;;;0.75;0.68;;;4.70;99.90;;;;;;5087625;28;20464;-75
2022/11/20 01:49:52;;;;;;;4.13;1.13;;;4.70;99.90;;;;;;5104387;28;20016;-76
2022/11/20 01:52:22;;;;;;;0.75;0.50;;;4.70;99.90;;;;;;5088508;28;20297;-76
2022/11/20 01:55:10;;;;;;;0.88;0.82;;;4.80;99.90;;;;;;5104437;28;20553;-76
2022/11/20 01:57:37;;;;;;;0.88;0.85;;;4.80;99.90;;;;;;5087837;28;20378;-76
2022/11/20 02:00:10;;;;;;;2.75;0.70;;;4.80;99.90;;;;;;5088852;28;20020;-76
2022/11/20 02:02:37;;;;;;;2.45;1.67;;;4.80;99.90;;;;;;5088604;28;20055;-76
2022/11/20 02:05:17;;;;;;;0.93;0.88;;;4.80;99.90;;;;;;5088085;28;20016;-76
2022/11/20 02:07:44;;;;;;;0.73;0.63;;;4.80;99.90;;;;;;5088741;28;20027;-76
2022/11/20 02:10:09;;;;;;;4.63;1.52;;;4.70;99.90;;;;;;5087629;28;20258;-76
2022/11/20 02:15:19;;;;;;;1.85;0.70;;;4.70;99.90;;;;;;5088966;28;20182;-74
2022/11/20 02:17:45;;;;;;;5.47;1.73;;;4.80;99.90;;;;;;5089326;28;20103;-74
2022/11/20 02:20:11;;;;;;;2.13;1.00;;;4.70;99.90;;;;;;5089478;28;20031;-73
2022/11/20 02:23:05;;;;;;;0.55;0.55;;;4.70;99.90;;;;;;5088641;28;20028;-74
2022/11/20 02:25:34;;;;;;;1.17;1.08;;;4.70;99.90;;;;;;5083492;28;20031;-75
2022/11/20 02:28:01;;;;;;;5.18;1.08;;;4.60;99.90;;;;;;5089395;28;20028;-75
2022/11/20 02:30:26;;;;;;;1.35;0.60;;;4.60;99.90;;;;;;5089939;28;20440;-74
2022/11/20 02:32:52;;;;;;;1.50;0.90;;;4.60;99.90;;;;;;5091128;28;20024;-74
2022/11/20 02:35:17;;;;;;;0.80;0.60;;;4.60;99.90;;;;;;5091039;28;20040;-74
2022/11/20 02:37:44;;;;;;;1.70;1.30;;;4.70;99.90;;;;;;5091066;28;20032;-74
2022/11/20 02:40:10;;;;;;;1.48;1.38;;;4.70;99.90;;;;;;5089916;28;20051;-74
2022/11/20 02:42:37;;;;;;;0.80;0.80;;;4.80;99.90;;;;;;5090487;28;20078;-74
2022/11/20 02:45:04;;;;;;;1.40;1.27;;;4.90;99.90;;;;;;5091685;28;20258;-74
2022/11/20 02:47:30;;;;;;;1.17;1.02;;;4.90;99.90;;;;;;5090402;28;20143;-75
2022/11/20 02:49:56;;;;;;;1.63;0.95;;;5.00;99.90;;;;;;5090002;28;20522;-74
2022/11/20 02:52:22;;;;;;;2.55;1.30;;;5.10;99.90;;;;;;5091173;28;20032;-74
2022/11/20 02:54:47;;;;;;;1.30;1.17;;;5.10;99.90;;;;;;5089674;28;20016;-74
2022/11/20 02:57:13;;;;;;;1.77;0.80;;;5.20;99.90;;;;;;5090795;28;20107;-74
2022/11/20 02:59:38;;;;;;;2.28;1.00;;;5.30;99.90;;;;;;5089205;28;20115;-74
2022/11/20 03:02:04;;;;;;;1.23;0.80;;;5.30;99.90;;;;;;5090558;28;20035;-73
2022/11/20 03:04:30;;;;;;;1.55;1.05;;;5.30;99.90;;;;;;5090258;28;20016;-74
2022/11/20 03:06:56;;;;;;;0.95;0.73;;;5.30;99.90;;;;;;5088949;28;20488;-74
2022/11/20 03:09:22;;;;;;;4.20;1.10;;;5.20;99.90;;;;;;5088771;28;20032;-74
2022/11/20 03:11:48;;;;;;;0.98;0.82;;;5.30;99.90;;;;;;5090665;28;20028;-74
2022/11/20 03:14:14;;;;;;;1.38;0.75;;;5.30;99.90;;;;;;5090685;28;20099;-74
2022/11/20 03:16:40;;;;;;;2.75;0.68;;;5.30;99.90;;;;;;5089210;28;20358;-74
2022/11/20 03:19:06;;;;;;;3.50;1.08;;;5.30;99.90;;;;;;5090968;28;20024;-74
2022/11/20 03:21:33;;;;;;;0.60;0.60;;;5.40;99.90;;;;;;5090855;28;20020;-74
2022/11/20 03:23:59;;;;;;;0.85;0.85;;;5.40;99.90;;;;;;5090495;28;20368;-73
2022/11/20 03:26:26;;;;;;;1.40;1.33;;;5.50;99.90;;;;;;5089282;28;20318;-74
2022/11/20 03:29:04;;;;;;;1.00;0.73;;;5.40;99.90;;;;;;5090506;28;20016;-74
2022/11/20 03:31:35;;;;;;;0.38;0.38;;;5.50;99.90;;;;;;5089745;28;20016;-74
2022/11/20 03:34:04;;;;;;;0.82;0.70;;;5.40;99.90;;;;;;5088698;28;20024;-75
2022/11/20 03:36:30;;;;;;;1.53;1.43;;;5.40;99.90;;;;;;5089981;28;20130;-74
2022/11/20 03:38:57;;;;;;;0.70;0.70;;;5.40;99.90;;;;;;5089817;28;20270;-74
2022/11/20 03:41:25;;;;;;;0.98;0.80;;;5.50;99.90;;;;;;5089419;28;20048;-74
2022/11/20 03:43:53;;;;;;;1.58;1.15;;;5.50;99.90;;;;;;5088661;28;20031;-74
2022/11/20 03:46:20;;;;;;;4.15;0.82;;;5.40;99.90;;;;;;5088336;28;20028;-74
2022/11/20 03:48:45;;;;;;;0.60;0.60;;;5.30;99.90;;;;;;5104093;28;20024;-73
2022/11/20 03:51:14;;;;;;;0.40;0.40;;;5.20;99.90;;;;;;5089084;28;20046;-75
2022/11/20 03:53:41;;;;;;;0.63;0.52;;;5.20;99.90;;;;;;5088136;28;20477;-74
2022/11/20 03:56:08;;;;;;;1.83;1.52;;;5.10;99.90;;;;;;5104031;28;20059;-74
2022/11/20 03:58:41;;;;;;;0.70;0.50;;;5.10;99.90;;;;;;5088089;28;20030;-73
2022/11/20 04:01:16;;;;;;;1.67;0.57;;;5.00;99.90;;;;;;5087215;28;20024;-73
2022/11/20 04:03:42;;;;;;;0.50;0.45;;;5.00;99.90;;;;;;5089248;28;20099;-73
2022/11/20 04:06:11;;;;;;;2.40;0.52;;;4.90;99.90;;;;;;5089575;28;20408;-73
2022/11/20 04:08:37;;;;;;;0.50;0.50;;;4.90;99.90;;;;;;5089414;28;20103;-74
2022/11/20 04:11:19;;;;;;;0.40;0.40;;;4.90;99.90;;;;;;5089581;28;20020;-73
2022/11/20 04:13:54;;;;;;;2.55;0.50;;;4.90;99.90;;;;;;5089352;28;20115;-73
2022/11/20 04:16:21;;;;;;;0.73;0.73;;;4.80;99.90;;;;;;5089446;28;20437;-74
2022/11/20 04:18:51;;;;;;;1.30;1.20;;;4.80;99.90;;;;;;5089435;28;20030;-74
2022/11/20 04:21:16;;;;;;;0.47;0.47;;;4.80;99.90;;;;;;5089413;28;20046;-74
2022/11/20 04:23:42;;;;;;;2.08;0.85;;;4.90;99.90;;;;;;5087989;28;20193;-73
2022/11/20 04:26:10;;;;;;;0.60;0.60;;;4.90;99.90;;;;;;5088033;28;20028;-74
2022/11/20 04:28:36;;;;;;;0.45;0.45;;;4.80;99.90;;;;;;5105077;28;20545;-73
2022/11/20 04:31:06;;;;;;;0.52;0.52;;;4.80;99.90;;;;;;5089422;28;20020;-73
2022/11/20 04:33:33;;;;;;;0.60;0.60;;;4.70;99.90;;;;;;5089133;28;20028;-74
2022/11/20 04:36:09;;;;;;;0.70;0.70;;;4.60;99.90;;;;;;5089361;28;20105;-73
2022/11/20 04:38:35;;;;;;;1.80;0.65;;;4.50;99.90;;;;;;5090203;28;20028;-74
2022/11/20 04:41:04;;;;;;;1.92;0.90;;;4.40;99.90;;;;;;5089660;28;20024;-74
2022/11/20 04:43:31;;;;;;;0.77;0.77;;;4.30;99.90;;;;;;5093369;28;20028;-73
2022/11/20 04:45:58;;;;;;;1.00;0.65;;;4.30;99.90;;;;;;5093654;28;20084;-74
2022/11/20 04:48:25;;;;;;;0.60;0.60;;;4.30;99.90;;;;;;5091834;28;20035;-74
2022/11/20 04:50:51;;;;;;;0.60;0.60;;;4.30;99.90;;;;;;5091829;28;20027;-74
2022/11/20 04:53:17;;;;;;;1.73;1.38;;;4.30;99.90;;;;;;5091842;28;20032;-74
2022/11/20 04:55:42;;;;;;;0.60;0.60;;;4.30;99.90;;;;;;5092850;28;20035;-74
2022/11/20 04:58:08;;;;;;;2.28;1.15;;;4.30;99.90;;;;;;5091459;28;20024;-74
2022/11/20 05:00:34;;;;;;;0.95;0.75;;;4.30;99.90;;;;;;5093154;28;20020;-74
2022/11/20 05:02:59;;;;;;;0.70;0.70;;;4.30;99.90;;;;;;5092643;28;20039;-73
2022/11/20 05:05:25;;;;;;;0.88;0.75;;;4.30;99.90;;;;;;5092312;28;20020;-74
2022/11/20 05:07:51;;;;;;;2.40;0.70;;;4.30;99.90;;;;;;5092525;28;20120;-74
2022/11/20 05:10:17;;;;;;;2.65;0.77;;;4.30;99.90;;;;;;5092547;28;20035;-73
2022/11/20 05:12:43;;;;;;;1.05;0.98;;;4.30;99.90;;;;;;5092705;28;20023;-73
2022/11/20 05:15:09;;;;;;;1.20;1.10;;;4.40;99.90;;;;;;5092594;28;20024;-73
2022/11/20 05:17:35;;;;;;;3.47;0.65;;;4.50;99.90;;;;;;5092430;28;20580;-73
2022/11/20 05:20:00;;;;;;;0.70;0.70;;;4.50;99.90;;;;;;5091041;28;20130;-74
2022/11/20 05:22:26;;;;;;;0.70;0.70;;;4.60;99.90;;;;;;5092410;28;20044;-73
2022/11/20 05:24:51;;;;;;;2.67;0.93;;;4.60;99.90;;;;;;5092211;28;20030;-74
2022/11/20 05:27:17;;;;;;;0.35;0.35;;;4.70;99.90;;;;;;5092554;28;20107;-74
2022/11/20 05:29:43;;;;;;;0.98;0.43;;;4.70;99.90;;;;;;5092896;28;20094;-74
2022/11/20 05:32:09;;;;;;;0.52;0.40;;;4.80;99.90;;;;;;5092251;28;20028;-74
2022/11/20 05:34:35;;;;;;;0.50;0.50;;;4.90;99.90;;;;;;5092485;28;20016;-75
2022/11/20 05:37:02;;;;;;;0.75;0.75;;;4.90;99.90;;;;;;5090691;28;20056;-74
2022/11/20 05:39:28;;;;;;;0.30;0.30;;;5.00;99.90;;;;;;5108184;28;20031;-74
2022/11/20 05:44:38;;;;;;;0.57;0.35;;;5.00;99.90;;;;;;5092347;28;20074;-73
2022/11/20 05:47:04;;;;;;;0.68;0.68;;;5.00;99.90;;;;;;5092802;28;20055;-73
2022/11/20 05:49:30;;;;;;;0.40;0.40;;;5.10;99.90;;;;;;5091872;28;20586;-73
2022/11/20 05:51:55;;;;;;;2.65;0.32;;;5.10;99.90;;;;;;5092201;28;20254;-74
2022/11/20 05:54:21;;;;;;;0.68;0.50;;;5.10;99.90;;;;;;5091276;28;20024;-74
2022/11/20 05:56:47;;;;;;;0.28;0.28;;;5.10;99.90;;;;;;5092092;28;20104;-74
2022/11/20 05:59:12;;;;;;;0.38;0.38;;;5.10;99.90;;;;;;5092411;28;20024;-74
2022/11/20 06:01:38;;;;;;;0.43;0.30;;;5.10;99.90;;;;;;5090452;28;20036;-74
2022/11/20 06:04:04;;;;;;;0.35;0.35;;;5.00;99.90;;;;;;5091483;28;20024;-74
2022/11/20 06:06:29;;;;;;;3.22;0.60;;;4.90;99.90;;;;;;5091604;28;20020;-74
2022/11/20 06:08:55;;;;;;;0.30;0.28;;;4.30;99.90;;;;;;5091688;28;20020;-74
2022/11/20 06:11:21;;;;;;;0.75;0.50;;;4.90;99.90;;;;;;5091499;28;20381;-74
2022/11/20 06:13:48;;;;;;;0.52;0.52;;;4.80;99.90;;;;;;5091456;28;20094;-74
2022/11/20 06:16:16;;;;;;;0.40;0.40;;;4.90;99.90;;;;;;5091357;28;20515;-74
2022/11/20 06:18:42;;;;;;;0.30;0.30;;;4.90;99.90;;;;;;5089458;28;20206;-74
2022/11/20 06:21:13;;;;;;;1.15;0.60;;;5.00;99.90;;;;;;5091999;28;20214;-74
2022/11/20 06:23:39;;;;;;;0.75;0.40;;;5.00;99.90;;;;;;5090123;28;20036;-74
2022/11/20 06:26:08;;;;;;;0.80;0.80;;;5.10;99.90;;;;;;5089879;28;20028;-74
2022/11/20 06:28:34;;;;;;;1.23;1.13;;;5.10;99.90;;;;;;5090060;28;20028;-74
2022/11/20 06:31:00;;;;;;;2.55;1.08;;;5.20;99.90;;;;;;5089481;28;20081;-74
2022/11/20 06:33:26;;;;;;;1.75;0.28;;;5.10;99.90;;;;;;5090712;28;20250;-74
2022/11/20 06:35:52;;;;;;;1.20;0.55;;;4.90;99.90;;;;;;5089219;28;20113;-74
2022/11/20 06:38:17;;;;;;;0.52;0.50;;;4.90;99.90;;;;;;5106619;28;20472;-74
2022/11/20 06:40:43;;;;;;;0.30;0.30;;;4.90;99.90;;;;;;5090766;28;20054;-74
2022/11/20 06:43:10;;;;;;;0.80;0.55;;;4.80;99.90;;;;;;5089710;28;20032;-74
2022/11/20 06:45:36;;;;;;;0.52;0.52;;;4.80;99.90;;;;;;5090901;28;20073;-74
2022/11/20 06:48:02;;;;;;;1.05;0.93;;;4.70;99.90;;;;;;5088792;28;20024;-74
2022/11/20 06:50:28;;;;;;;1.27;1.15;;;4.80;99.90;;;;;;5090520;28;20103;-74
2022/11/20 06:52:53;;;;;;;1.00;0.80;;;4.80;99.90;;;;;;5089226;28;20273;-74
2022/11/20 06:55:19;;;;;;;0.75;0.60;;;4.90;99.90;;;;;;5089312;28;20032;-73
2022/11/20 06:57:45;;;;;;;5.90;1.33;;;4.90;99.90;;;;;;5090528;28;20016;-74
2022/11/20 07:00:11;;;;;;;0.73;0.73;;;5.00;99.90;;;;;;5090553;28;20426;-74
2022/11/20 07:02:37;;;;;;;0.85;0.75;;;5.10;99.90;;;;;;5088675;28;20050;-74
2022/11/20 07:05:03;;;;;;;1.65;0.55;;;5.20;99.90;;;;;;5089485;28;20016;-74
2022/11/20 07:07:29;;;;;;;1.52;1.00;;;5.20;99.90;;;;;;5105815;28;20047;-76
2022/11/20 07:09:54;;;;;;;0.30;0.30;;;5.30;99.90;;;;;;5089113;28;20393;-76
2022/11/20 07:12:20;;;;;;;1.27;0.85;;;5.30;99.90;;;;;;5090073;28;20141;-76
2022/11/20 07:14:46;;;;;;;0.73;0.73;;;5.30;99.90;;;;;;5090854;28;20016;-76
2022/11/20 07:17:12;;;;;;;0.65;0.50;;;5.40;99.90;;;;;;5105953;28;20536;-76
2022/11/20 07:19:37;;;;;;;0.45;0.45;;;5.40;99.90;;;;;;5088801;28;20024;-75
2022/11/20 07:22:03;;;;;;;0.60;0.60;;;5.40;99.90;;;;;;5105643;28;20044;-76
2022/11/20 07:24:29;;;;;;;0.35;0.35;;;5.50;99.90;;;;;;5106944;28;20103;-76
2022/11/20 07:26:54;;;;;;;1.33;0.80;;;5.60;99.90;;;;;;5089980;28;20024;-76
2022/11/20 07:29:20;;;;;;;0.38;0.38;;;5.70;99.90;;;;;;5093082;28;20028;-76
2022/11/20 07:31:46;;;;;;;0.30;0.30;;;5.70;99.90;;;;;;5103788;28;20119;-76
2022/11/20 07:34:11;;;;;;;1.75;0.80;;;5.80;99.90;;;;;;5103769;28;20030;-76
2022/11/20 07:36:37;;;;;;;0.73;0.73;;;5.80;99.90;;;;;;5088349;28;20057;-75
2022/11/20 07:39:03;;;;;;;0.63;0.50;;;5.80;99.90;;;;;;5089329;28;20019;-77
2022/11/20 07:41:28;;;;;;;0.38;0.30;;;5.80;99.90;;;;;;5088443;28;20078;-75
2022/11/20 07:43:54;;;;;;;0.63;0.63;;;5.80;99.90;;;;;;5089731;28;20024;-76
2022/11/20 07:46:20;;;;;;;1.50;0.93;;;5.80;99.90;;;;;;5090585;28;20025;-76
2022/11/20 07:48:46;;;;;;;1.10;0.47;;;;;;;;;;5086982;28;20024;-76
2022/11/20 07:51:11;;;;;;;2.35;0.70;;;5.80;99.90;;;;;;5097694;28;20128;-77
2022/11/20 07:53:37;;;;;;;1.00;0.50;;;5.80;99.90;;;;;;5100351;28;20300;-76
2022/11/20 07:56:03;;;;;;;0.55;0.50;;;5.80;99.90;;;;;;5101372;28;20061;-76
2022/11/20 07:58:29;;;;;;;0.30;0.30;;;5.90;99.90;;;;;;5099775;28;20032;-76
2022/11/20 08:00:56;;;;;;;0.85;0.32;;;5.90;99.90;;;;;;5101267;28;20312;-76
2022/11/20 08:03:21;;;;;;;0.45;0.45;;;6.00;99.90;;;;;;5100842;28;20091;-76
2022/11/20 08:05:47;;;;;;;0.43;0.38;;;;;;;;;;5101029;28;20032;-77
2022/11/20 08:08:13;;;;;;;0.93;0.82;;;6.00;99.90;;;;;;5098863;28;20134;-76
2022/11/20 08:10:38;;;;;;;7.22;1.13;;;6.10;99.90;;;;;;5100871;28;20079;-77
2022/11/20 08:15:50;;;;;;;0.40;0.40;;;6.20;99.90;;;;;;5100803;28;20022;-75
2022/11/20 08:18:17;;;;;;;0.55;0.55;;;6.20;99.90;;;;;;5103318;28;20019;-77
2022/11/20 08:20:43;;;;;;;2.55;0.40;;;6.30;99.90;;;;;;5104824;28;20024;-76
2022/11/20 08:23:09;;;;;;;0.70;0.70;;;;;;;;;;5104646;28;20031;-76
2022/11/20 08:25:38;;;;;;;1.83;0.90;;;6.40;99.90;;;;;;5099511;28;20016;-76
2022/11/20 08:28:06;;;;;;;0.40;0.40;;;6.40;99.90;;;;;;5102979;28;20031;-77
2022/11/20 08:30:32;;;;;;;0.40;0.40;;;;;;;;;;5102884;28;20020;-77
2022/11/20 08:33:03;;;;;;;2.30;0.40;;;9.40;99.90;;;;;;5101546;28;20051;-76
2022/11/20 08:35:33;;;;;;;0.88;0.80;;;6.60;99.90;;;;;;5101641;28;20196;-77
2022/11/20 08:37:58;;;;;;;3.55;1.23;;;6.70;99.90;;;;;;5102581;28;20184;-77
2022/11/20 08:40:24;;;;;;;0.60;0.60;;;6.90;99.90;;;;;;5093035;28;20457;-77
2022/11/20 08:42:50;;;;;;;0.40;0.40;;;8.40;99.90;;;;;;5091092;28;20028;-76
2022/11/20 08:45:17;;;;;;;0.57;0.47;;;7.00;99.90;;;;;;5089040;28;20031;-76
2022/11/20 08:47:44;;;;;;;0.68;0.60;;;7.00;99.90;;;;;;5099102;28;20020;-76
2022/11/20 08:50:11;;;;;;;0.45;0.45;;;7.30;99.90;;;;;;5110301;28;20012;-76
2022/11/20 08:52:37;;;;;;;0.50;0.50;;;7.30;99.90;;;;;;5111763;28;20042;-76
2022/11/20 08:55:04;;;;;;;0.40;0.40;;;7.50;99.90;;;;;;5111629;27;20102;-76
2022/11/20 08:57:36;;;;;;;0.52;0.30;;;7.50;99.90;;;;;;5111231;28;20080;-76
2022/11/20 09:00:04;;;;;;;0.30;0.30;;;7.50;99.90;;;;;;5112262;28;20027;-77
2022/11/20 09:02:30;;;;;;;3.28;0.55;;;7.60;99.90;;;;;;5112472;28;20128;-76
2022/11/20 09:04:56;;;;;;;0.50;0.50;;;7.70;99.90;;;;;;5128388;27;20069;-76
2022/11/20 09:07:22;;;;;;;0.40;0.40;;;7.90;99.90;;;;;;5110861;28;20034;-76
2022/11/20 09:09:47;;;;;;;0.50;0.50;;;8.10;99.90;;;;;;5111133;28;20028;-76
2022/11/20 09:12:13;;;;;;;0.60;0.60;;;8.10;99.90;;;;;;5112609;28;20441;-76
2022/11/20 09:14:39;;;;;;;0.63;0.50;;;8.10;99.90;;;;;;5112759;28;20035;-76
2022/11/20 09:17:07;;;;;;;1.08;0.88;;;8.10;99.90;;;;;;5100922;28;20107;-75
2022/11/20 09:19:33;;;;;;;0.28;0.28;;;8.20;99.90;;;;;;5088813;28;20038;-76
2022/11/20 09:21:59;;;;;;;0.47;0.35;;;8.40;99.90;;;;;;5092360;28;20032;-75
2022/11/20 09:24:26;;;;;;;0.35;0.35;;;;;;;;;;5107673;28;20020;-75
2022/11/20 09:26:51;;;;;;;0.50;0.50;;;8.30;99.90;;;;;;5091865;28;20095;-76
2022/11/20 09:29:17;;;;;;;0.90;0.73;;;8.30;99.90;;;;;;5106381;28;20555;-76
2022/11/20 09:31:42;;;;;;;1.17;0.50;;;8.30;99.90;;;;;;5091982;28;20413;-76
2022/11/20 09:34:08;;;;;;;1.67;1.45;;;8.30;99.90;;;;;;5091545;28;20031;-75
2022/11/20 09:36:34;;;;;;;0.50;0.47;;;8.20;99.90;;;;;;5119031;27;20434;-75
2022/11/20 09:39:00;;;;;;;0.55;0.55;;;;;;;;;;5111379;28;20023;-75
2022/11/20 09:42:04;;;;;;;1.95;1.35;;;7.90;99.90;;;;;;5112596;28;20094;-76
2022/11/20 09:44:30;;;;;;;1.08;0.57;;;7.70;99.90;;;;;;5112729;28;20096;-76
2022/11/20 09:47:05;;;;;;;0.68;0.68;;;7.60;99.90;;;;;;5109697;28;20404;-76
2022/11/20 09:49:50;;;;;;;0.93;0.80;;;7.60;99.90;;;;;;5110540;28;20092;-76
2022/11/20 09:52:18;;;;;;;1.02;0.80;;;7.70;99.90;;;;;;5111950;28;20058;-76
2022/11/20 09:54:44;;;;;;;0.68;0.68;;;7.70;99.90;;;;;;5110597;28;20253;-77
2022/11/20 09:57:14;;;;;;;0.88;0.70;;;7.70;99.90;;;;;;5110350;28;20578;-75
2022/11/20 10:00:02;;;;;;;1.58;0.82;;;7.70;99.90;;;;;;5111277;27;20380;-76
2022/11/20 10:02:36;;;;;;;1.35;1.30;;;7.70;99.90;;;;;;5094705;28;20032;-76
2022/11/20 10:05:10;;;;;;;0.65;0.65;;;7.70;99.90;;;;;;5090784;28;20173;-76
2022/11/20 10:07:47;;;;;;;1.20;1.02;;;7.60;99.90;;;;;;5090618;28;20069;-78
2022/11/20 10:10:16;;;;;;;0.65;0.60;;;7.60;99.90;;;;;;5092428;28;20158;-76
2022/11/20 10:13:01;;;;;;;3.67;1.10;;;7.60;99.90;;;;;;5092444;28;20101;-76
2022/11/20 10:15:47;;;;;;;1.23;0.80;;;7.60;99.90;;;;;;5089304;28;20028;-75
2022/11/20 10:18:28;;;;;;;3.85;1.25;;;7.60;99.90;;;;;;5089996;28;20024;-76
2022/11/20 10:21:22;;;;;;;0.68;0.68;;;7.60;99.90;;;;;;5089943;28;20028;-76
2022/11/20 10:23:48;;;;;;;1.20;0.98;;;7.70;99.90;;;;;;5090563;28;20032;-76
2022/11/20 10:26:42;;;;;;;2.25;1.65;;;7.90;99.90;;;;;;5091190;28;20099;-77
2022/11/20 10:29:21;;;;;;;0.63;0.63;;;8.20;99.90;;;;;;5091203;28;20028;-76
2022/11/20 10:31:54;;;;;;;0.50;0.45;;;8.50;99.90;;;;;;5089637;28;20062;-76
2022/11/20 10:34:28;;;;;;;1.00;0.90;;;8.60;99.90;;;;;;5090527;28;20028;-76
2022/11/20 10:37:09;;;;;;;1.65;0.70;;;8.80;99.90;;;;;;5089358;28;20500;-76
2022/11/20 10:40:04;;;;;;;7.00;1.67;;;9.10;99.90;;;;;;5091009;28;20024;-77
2022/11/20 10:42:46;;;;;;;3.47;1.63;;;9.30;99.90;;;;;;5089599;28;20243;-75
2022/11/20 10:45:23;;;;;;;1.80;0.70;;;9.20;99.90;;;;;;5090892;28;20154;-76
2022/11/20 10:48:05;;;;;;;4.00;0.80;;;9.10;99.90;;;;;;5089459;28;20102;-75
2022/11/20 10:50:31;;;;;;;0.57;0.43;;;8.90;99.90;;;;;;5090463;28;20057;-75
2022/11/20 10:53:15;;;;;;;3.65;0.50;;;8.80;99.90;;;;;;5090669;28;20073;-74
2022/11/20 10:55:58;;;;;;;1.60;0.55;;;8.80;99.90;;;;;;5090839;28;20100;-75
2022/11/20 10:58:40;;;;;;;0.70;0.60;;;8.70;99.90;;;;;;5089571;28;20113;-76
2022/11/20 11:01:14;;;;;;;0.80;0.70;;;8.50;99.90;;;;;;5091038;28;20020;-76
2022/11/20 11:03:43;;;;;;;0.60;0.60;;;8.30;99.90;;;;;;5091020;28;20517;-76
2022/11/20 11:06:30;;;;;;;0.47;0.47;;;8.30;99.90;;;;;;5091027;28;20032;-76
2022/11/20 11:09:03;;;;;;;5.28;1.25;;;8.40;99.90;;;;;;5090729;28;20074;-76
2022/11/20 11:11:33;;;;;;;1.67;0.40;;;8.50;99.90;;;;;;5089406;28;20461;-76
2022/11/20 11:14:14;;;;;;;0.63;0.63;;;8.50;99.90;;;;;;5090824;28;20042;-76
2022/11/20 11:16:57;;;;;;;0.43;0.43;;;8.20;99.90;;;;;;5090842;28;20031;-76
2022/11/20 11:19:23;;;;;;;0.47;0.45;;;8.10;99.90;;;;;;5090633;28;20063;-76
2022/11/20 11:21:54;;;;;;;5.07;1.48;;;8.00;99.90;;;;;;5089414;28;20069;-76
2022/11/20 11:24:25;;;;;;;0.63;0.40;;;7.90;99.90;;;;;;5090668;28;20393;-76
2022/11/20 11:26:58;;;;;;;0.50;0.50;;;7.80;99.90;;;;;;5090199;28;20031;-76
2022/11/20 11:29:26;;;;;;;0.30;0.20;;;7.90;99.90;;;;;;5090013;28;20125;-76
2022/11/20 11:32:12;;;;;;;0.30;0.30;;;8.60;99.90;;;;;;5090917;28;20068;-75
2022/11/20 11:34:37;;;;;;;1.17;0.80;;;7.80;99.90;;;;;;5090421;28;20028;-76
2022/11/20 11:37:04;;;;;;;0.30;0.30;;;7.90;99.90;;;;;;5089978;28;20048;-76
2022/11/20 11:39:33;;;;;;;0.40;0.40;;;7.90;99.90;;;;;;5090175;28;20067;-76
2022/11/20 11:42:00;;;;;;;0.30;0.30;;;8.00;99.90;;;;;;5087940;28;20080;-76
2022/11/20 11:47:29;;;;;;;0.73;0.73;;;7.90;99.90;;;;;;5090653;28;20496;-76
2022/11/20 11:50:24;;;;;;;2.60;0.50;;;7.90;99.90;;;;;;5090090;28;20019;-76
2022/11/20 11:53:09;;;;;;;0.45;0.45;;;7.90;99.90;;;;;;5086490;28;20040;-78
2022/11/20 11:55:37;;;;;;;0.93;0.75;;;8.10;99.90;;;;;;5090033;28;20099;-76
2022/11/20 11:58:38;;;;;;;1.73;0.60;;;8.10;99.90;;;;;;5090346;28;20031;-76
2022/11/20 12:01:08;;;;;;;0.40;0.40;;;8.30;99.90;;;;;;5090304;28;20108;-75
2022/11/20 12:03:41;;;;;;;0.50;0.50;;;8.30;99.90;;;;;;5089455;28;20072;-76
2022/11/20 12:06:13;;;;;;;1.58;0.38;;;8.50;99.90;;;;;;5088643;28;20441;-75
2022/11/20 12:09:05;;;;;;;0.40;0.40;;;8.50;99.90;;;;;;5090479;28;20056;-76
2022/11/20 12:12:18;;;;;;;2.47;0.73;;;8.40;97.90;;;;;;5088368;28;20048;-76
2022/11/20 12:14:49;;;;;;;0.47;0.47;;;8.50;98.00;;;;;;5087972;28;20032;-76
2022/11/20 12:17:15;;;;;;;0.30;0.30;;;8.60;96.40;;;;;;5090148;28;20069;-76
2022/11/20 12:19:41;;;;;;;0.75;0.68;;;8.70;98.70;;;;;;5089178;28;20103;-76
2022/11/20 12:22:39;;;;;;;0.60;0.60;;;8.80;99.90;;;;;;5088105;28;20036;-76
2022/11/20 12:25:17;;;;;;;0.70;0.70;;;8.80;99.90;;;;;;5089723;28;20029;-76
2022/11/20 12:28:10;;;;;;;0.50;0.50;;;8.80;99.90;;;;;;5089728;28;20024;-76
2022/11/20 12:30:49;;;;;;;0.70;0.70;;;8.60;99.90;;;;;;5088270;28;20115;-76
2022/11/20 12:33:26;;;;;;;0.63;0.63;;;8.30;99.90;;;;;;5088079;28;20476;-76
2022/11/20 12:36:05;;;;;;;0.80;0.80;;;8.10;99.90;;;;;;5089383;28;20044;-76
2022/11/20 12:39:00;;;;;;;0.70;0.70;;;8.00;99.90;;;;;;5088362;28;20024;-76
2022/11/20 12:47:37;;;;;;;4.18;0.95;;;8.00;99.90;;;;;;5089747;28;20446;-77
2022/11/20 12:50:23;;;;;;;1.38;0.90;;;7.90;99.90;;;;;;5088149;28;20113;-76
2022/11/20 12:52:55;;;;;;;3.22;1.40;;;8.00;99.90;;;;;;5087779;28;20111;-76
2022/11/20 12:55:33;;;;;;;0.50;0.50;;;8.40;99.90;;;;;;5087853;28;20030;-77
2022/11/20 12:58:05;;;;;;;0.55;0.55;;;8.80;99.90;;;;;;5087615;28;20032;-77
2022/11/20 13:00:34;;;;;;;0.88;0.47;;;8.90;99.90;;;;;;5087792;28;20024;-75
2022/11/20 13:03:08;;;;;;;0.70;0.60;;;9.00;99.90;;;;;;5089029;28;20039;-76
2022/11/20 13:05:58;;;;;;;0.40;0.40;;;9.00;99.90;;;;;;5091601;28;20236;-76
2022/11/20 13:08:33;;;;;;;1.67;0.50;;;8.90;99.90;;;;;;5091315;28;20034;-77
2022/11/20 13:11:14;;;;;;;1.02;0.60;;;9.00;99.90;;;;;;5092509;28;20028;-77
2022/11/20 13:13:45;;;;;;;2.88;0.95;;;9.10;99.90;;;;;;5091281;28;20103;-76
2022/11/20 13:16:25;;;;;;;1.33;0.82;;;9.30;99.90;;;;;;5091097;28;20052;-76
2022/11/20 13:18:51;;;;;;;0.65;0.50;;;9.50;99.90;;;;;;5092192;28;20127;-76
2022/11/20 13:21:40;;;;;;;0.40;0.40;;;9.60;99.70;;;;;;5107859;28;20028;-75
2022/11/20 13:24:25;;;;;;;0.20;0.20;;;9.60;98.00;;;;;;5091004;28;20032;-77
2022/11/20 13:27:23;;;;;;;1.95;0.30;;;9.60;96.90;;;;;;5092480;28;20219;-76
2022/11/20 13:30:16;;;;;;;0.50;0.50;;;10.00;96.40;;;;;;5092271;28;20020;-76
2022/11/20 13:33:22;;;;;;;0.45;0.45;;;10.80;95.90;;;;;;5090749;28;20027;-76
2022/11/20 13:35:58;;;;;;;0.20;0.20;;;11.30;91.10;;;;;;5090479;28;20090;-76